sensor_id;sensor_type;location;lat;lon;timestamp;temperature;humidity
22908;DHT22;11620;50.050;8.690;2023-06-22T00:01:40;22.60;99.90
22908;DHT22;11620;50.050;8.690;2023-06-22T00:04:27;22.60;99.90
22908;DHT22;11620;50.050;8.690;2023-06-22T00:07:13;22.60;99.90
22908;DHT22;11620;50.050;8.690;2023-06-22T00:09:59;22.70;99.90
22908;DHT22;11620;50.050;8.690;2023-06-22T00:12:45;22.70;99.90
22908;DHT22;11620;50.050;8.690;2023-06-22T00:15:32;22.60;99.90
22908;DHT22;11620;50.050;8.690;2023-06-22T00:18:18;22.60;99.90
22908;DHT22;11620;50.050;8.690;2023-06-22T00:21:04;22.80;99.90
22908;DHT22;11620;50.050;8.690;2023-06-22T00:23:52;22.90;99.90
22908;DHT22;11620;50.050;8.690;2023-06-22T00:26:39;22.90;99.90
22908;DHT22;11620;50.050;8.690;2023-06-22T00:29:25;23.00;99.90
22908;DHT22;11620;50.050;8.690;2023-06-22T00:32:11;22.90;99.90
22908;DHT22;11620;50.050;8.690;2023-06-22T00:34:57;23.10;99.90
22908;DHT22;11620;50.050;8.690;2023-06-22T00:37:44;23.00;99.90
22908;DHT22;11620;50.050;8.690;2023-06-22T00:40:31;23.00;99.90
22908;DHT22;11620;50.050;8.690;2023-06-22T00:43:18;23.00;99.90
22908;DHT22;11620;50.050;8.690;2023-06-22T00:46:04;22.90;99.90
22908;DHT22;11620;50.050;8.690;2023-06-22T00:48:51;22.90;99.90
22908;DHT22;11620;50.050;8.690;2023-06-22T00:51:38;22.90;99.90
22908;DHT22;11620;50.050;8.690;2023-06-22T00:54:25;22.90;99.90
22908;DHT22;11620;50.050;8.690;2023-06-22T00:57:13;22.80;99.90
22908;DHT22;11620;50.050;8.690;2023-06-22T01:00:02;22.80;99.90
22908;DHT22;11620;50.050;8.690;2023-06-22T01:02:55;22.70;99.90
22908;DHT22;11620;50.050;8.690;2023-06-22T01:05:41;22.80;99.90
22908;DHT22;11620;50.050;8.690;2023-06-22T01:08:44;22.80;99.90
22908;DHT22;11620;50.050;8.690;2023-06-22T01:11:38;22.70;99.90
22908;DHT22;11620;50.050;8.690;2023-06-22T01:15:00;22.70;99.90
22908;DHT22;11620;50.050;8.690;2023-06-22T01:17:48;22.30;99.90
22908;DHT22;11620;50.050;8.690;2023-06-22T01:20:37;22.10;99.90
22908;DHT22;11620;50.050;8.690;2023-06-22T01:23:53;21.70;99.90
22908;DHT22;11620;50.050;8.690;2023-06-22T01:27:04;21.80;99.90
22908;DHT22;11620;50.050;8.690;2023-06-22T01:29:53;21.50;99.90
22908;DHT22;11620;50.050;8.690;2023-06-22T01:32:47;21.50;99.90
22908;DHT22;11620;50.050;8.690;2023-06-22T01:35:34;21.40;99.90
22908;DHT22;11620;50.050;8.690;2023-06-22T01:38:21;21.20;99.90
22908;DHT22;11620;50.050;8.690;2023-06-22T01:41:09;21.10;99.90
22908;DHT22;11620;50.050;8.690;2023-06-22T01:43:56;21.00;99.90
22908;DHT22;11620;50.050;8.690;2023-06-22T01:46:43;21.00;99.90
22908;DHT22;11620;50.050;8.690;2023-06-22T01:49:30;20.90;99.90
22908;DHT22;11620;50.050;8.690;2023-06-22T01:52:16;20.90;99.90
22908;DHT22;11620;50.050;8.690;2023-06-22T01:55:03;21.10;99.90
22908;DHT22;11620;50.050;8.690;2023-06-22T01:57:50;21.10;99.90
22908;DHT22;11620;50.050;8.690;2023-06-22T02:00:39;21.10;99.90
22908;DHT22;11620;50.050;8.690;2023-06-22T02:03:31;21.20;99.90
22908;DHT22;11620;50.050;8.690;2023-06-22T02:06:24;21.30;99.90
22908;DHT22;11620;50.050;8.690;2023-06-22T02:09:14;21.30;99.90
22908;DHT22;11620;50.050;8.690;2023-06-22T02:12:03;21.40;99.90
22908;DHT22;11620;50.050;8.690;2023-06-22T02:14:51;21.40;99.90
22908;DHT22;11620;50.050;8.690;2023-06-22T02:17:38;21.50;99.90
22908;DHT22;11620;50.050;8.690;2023-06-22T02:20:24;21.50;99.90
22908;DHT22;11620;50.050;8.690;2023-06-22T02:23:11;21.50;99.90
22908;DHT22;11620;50.050;8.690;2023-06-22T02:25:57;21.40;99.90
22908;DHT22;11620;50.050;8.690;2023-06-22T02:28:43;21.40;99.90
22908;DHT22;11620;50.050;8.690;2023-06-22T02:31:30;21.30;99.90
22908;DHT22;11620;50.050;8.690;2023-06-22T02:34:16;21.30;99.90
22908;DHT22;11620;50.050;8.690;2023-06-22T02:37:04;21.30;99.90
22908;DHT22;11620;50.050;8.690;2023-06-22T02:39:51;21.30;99.90
22908;DHT22;11620;50.050;8.690;2023-06-22T02:42:37;21.30;99.90
22908;DHT22;11620;50.050;8.690;2023-06-22T02:45:24;21.30;99.90
22908;DHT22;11620;50.050;8.690;2023-06-22T02:48:10;21.30;99.90
22908;DHT22;11620;50.050;8.690;2023-06-22T02:50:56;21.30;99.90
22908;DHT22;11620;50.050;8.690;2023-06-22T02:53:43;21.20;99.90
22908;DHT22;11620;50.050;8.690;2023-06-22T02:56:31;21.20;99.90
22908;DHT22;11620;50.050;8.690;2023-06-22T02:59:17;21.20;99.90
22908;DHT22;11620;50.050;8.690;2023-06-22T03:02:09;21.20;99.90
22908;DHT22;11620;50.050;8.690;2023-06-22T03:04:55;21.20;99.90
22908;DHT22;11620;50.050;8.690;2023-06-22T03:07:42;21.10;99.90
22908;DHT22;11620;50.050;8.690;2023-06-22T03:10:29;21.10;99.90
22908;DHT22;11620;50.050;8.690;2023-06-22T03:13:15;21.00;99.90
22908;DHT22;11620;50.050;8.690;2023-06-22T03:16:02;21.00;99.90
22908;DHT22;11620;50.050;8.690;2023-06-22T03:18:49;20.90;99.90
22908;DHT22;11620;50.050;8.690;2023-06-22T03:21:37;20.80;99.90
22908;DHT22;11620;50.050;8.690;2023-06-22T03:24:24;20.80;99.90
22908;DHT22;11620;50.050;8.690;2023-06-22T03:27:10;20.80;99.90
22908;DHT22;11620;50.050;8.690;2023-06-22T03:29:57;20.80;99.90
22908;DHT22;11620;50.050;8.690;2023-06-22T03:32:43;20.80;99.90
22908;DHT22;11620;50.050;8.690;2023-06-22T03:35:30;20.80;99.90
22908;DHT22;11620;50.050;8.690;2023-06-22T03:38:17;20.80;99.90
22908;DHT22;11620;50.050;8.690;2023-06-22T03:41:03;20.80;99.90
22908;DHT22;11620;50.050;8.690;2023-06-22T03:43:50;20.70;99.90
22908;DHT22;11620;50.050;8.690;2023-06-22T03:46:36;20.70;99.90
22908;DHT22;11620;50.050;8.690;2023-06-22T03:49:22;20.60;99.90
22908;DHT22;11620;50.050;8.690;2023-06-22T03:52:09;20.60;99.90
22908;DHT22;11620;50.050;8.690;2023-06-22T03:54:59;20.50;99.90
22908;DHT22;11620;50.050;8.690;2023-06-22T03:57:46;20.50;99.90
22908;DHT22;11620;50.050;8.690;2023-06-22T04:00:32;20.50;99.90
22908;DHT22;11620;50.050;8.690;2023-06-22T04:03:19;20.40;99.90
22908;DHT22;11620;50.050;8.690;2023-06-22T04:06:05;20.40;99.90
22908;DHT22;11620;50.050;8.690;2023-06-22T04:08:52;20.50;99.90
22908;DHT22;11620;50.050;8.690;2023-06-22T04:11:38;20.40;99.90
22908;DHT22;11620;50.050;8.690;2023-06-22T04:14:24;20.40;99.90
22908;DHT22;11620;50.050;8.690;2023-06-22T04:17:11;20.50;99.90
22908;DHT22;11620;50.050;8.690;2023-06-22T04:20:00;20.50;99.90
22908;DHT22;11620;50.050;8.690;2023-06-22T04:22:46;20.50;99.90
22908;DHT22;11620;50.050;8.690;2023-06-22T04:25:34;20.50;99.90
22908;DHT22;11620;50.050;8.690;2023-06-22T04:28:20;20.50;99.90
22908;DHT22;11620;50.050;8.690;2023-06-22T04:31:06;20.50;99.90
22908;DHT22;11620;50.050;8.690;2023-06-22T04:33:53;20.50;99.90
22908;DHT22;11620;50.050;8.690;2023-06-22T04:36:41;20.50;99.90
22908;DHT22;11620;50.050;8.690;2023-06-22T04:39:27;20.40;99.90
22908;DHT22;11620;50.050;8.690;2023-06-22T04:42:13;20.40;99.90
22908;DHT22;11620;50.050;8.690;2023-06-22T04:45:00;20.40;99.90
22908;DHT22;11620;50.050;8.690;2023-06-22T04:47:46;20.60;99.90
22908;DHT22;11620;50.050;8.690;2023-06-22T04:50:33;20.50;99.90
22908;DHT22;11620;50.050;8.690;2023-06-22T04:53:19;20.60;99.90
22908;DHT22;11620;50.050;8.690;2023-06-22T04:56:05;20.60;99.90
22908;DHT22;11620;50.050;8.690;2023-06-22T04:58:51;20.60;99.90
22908;DHT22;11620;50.050;8.690;2023-06-22T05:01:38;20.60;99.90
22908;DHT22;11620;50.050;8.690;2023-06-22T05:04:25;20.60;99.90
22908;DHT22;11620;50.050;8.690;2023-06-22T05:07:13;20.60;99.90
22908;DHT22;11620;50.050;8.690;2023-06-22T05:10:00;20.60;99.90
22908;DHT22;11620;50.050;8.690;2023-06-22T05:12:46;20.60;99.90
22908;DHT22;11620;50.050;8.690;2023-06-22T05:15:33;20.70;99.90
22908;DHT22;11620;50.050;8.690;2023-06-22T05:18:22;20.70;99.90
22908;DHT22;11620;50.050;8.690;2023-06-22T05:21:10;20.80;99.90
22908;DHT22;11620;50.050;8.690;2023-06-22T05:23:57;20.80;99.90
22908;DHT22;11620;50.050;8.690;2023-06-22T05:26:46;20.80;99.90
22908;DHT22;11620;50.050;8.690;2023-06-22T05:29:32;20.80;99.90
22908;DHT22;11620;50.050;8.690;2023-06-22T05:32:18;20.80;99.90
22908;DHT22;11620;50.050;8.690;2023-06-22T05:35:05;20.80;99.90
22908;DHT22;11620;50.050;8.690;2023-06-22T05:37:51;20.80;99.90
22908;DHT22;11620;50.050;8.690;2023-06-22T05:40:38;20.80;99.90
22908;DHT22;11620;50.050;8.690;2023-06-22T05:43:24;20.80;99.90
22908;DHT22;11620;50.050;8.690;2023-06-22T05:46:10;20.90;99.90
22908;DHT22;11620;50.050;8.690;2023-06-22T05:48:57;21.00;99.90
22908;DHT22;11620;50.050;8.690;2023-06-22T05:51:43;21.00;99.90
22908;DHT22;11620;50.050;8.690;2023-06-22T05:54:30;21.10;99.90
22908;DHT22;11620;50.050;8.690;2023-06-22T05:57:16;21.10;99.90
22908;DHT22;11620;50.050;8.690;2023-06-22T06:00:03;21.10;99.90
22908;DHT22;11620;50.050;8.690;2023-06-22T06:02:52;21.20;99.90
22908;DHT22;11620;50.050;8.690;2023-06-22T06:05:39;21.30;99.90
22908;DHT22;11620;50.050;8.690;2023-06-22T06:08:25;21.30;99.90
22908;DHT22;11620;50.050;8.690;2023-06-22T06:11:11;21.40;99.90
22908;DHT22;11620;50.050;8.690;2023-06-22T06:13:58;21.50;99.90
22908;DHT22;11620;50.050;8.690;2023-06-22T06:16:44;21.60;99.90
22908;DHT22;11620;50.050;8.690;2023-06-22T06:19:31;21.70;99.90
22908;DHT22;11620;50.050;8.690;2023-06-22T06:22:17;21.90;99.90
22908;DHT22;11620;50.050;8.690;2023-06-22T06:25:05;22.10;99.90
22908;DHT22;11620;50.050;8.690;2023-06-22T06:27:51;22.30;99.90
22908;DHT22;11620;50.050;8.690;2023-06-22T06:30:40;22.60;99.90
22908;DHT22;11620;50.050;8.690;2023-06-22T06:33:27;22.80;99.90
22908;DHT22;11620;50.050;8.690;2023-06-22T06:36:13;23.00;99.90
22908;DHT22;11620;50.050;8.690;2023-06-22T06:38:59;23.20;99.90
22908;DHT22;11620;50.050;8.690;2023-06-22T06:41:46;23.40;99.90
22908;DHT22;11620;50.050;8.690;2023-06-22T06:44:32;23.60;99.90
22908;DHT22;11620;50.050;8.690;2023-06-22T06:47:18;23.70;99.90
22908;DHT22;11620;50.050;8.690;2023-06-22T06:50:05;23.90;99.90
22908;DHT22;11620;50.050;8.690;2023-06-22T06:52:52;24.10;99.90
22908;DHT22;11620;50.050;8.690;2023-06-22T06:55:38;24.30;99.90
22908;DHT22;11620;50.050;8.690;2023-06-22T06:58:25;24.50;99.90
22908;DHT22;11620;50.050;8.690;2023-06-22T07:01:12;24.60;99.90
22908;DHT22;11620;50.050;8.690;2023-06-22T07:03:59;24.80;99.90
22908;DHT22;11620;50.050;8.690;2023-06-22T07:06:46;24.90;99.90
22908;DHT22;11620;50.050;8.690;2023-06-22T07:09:32;25.20;99.90
22908;DHT22;11620;50.050;8.690;2023-06-22T07:12:18;25.20;99.90
22908;DHT22;11620;50.050;8.690;2023-06-22T07:15:09;25.40;99.90
22908;DHT22;11620;50.050;8.690;2023-06-22T07:17:56;25.40;99.90
22908;DHT22;11620;50.050;8.690;2023-06-22T07:20:42;25.60;99.90
22908;DHT22;11620;50.050;8.690;2023-06-22T07:23:28;25.70;99.90
22908;DHT22;11620;50.050;8.690;2023-06-22T07:26:15;25.80;99.90
22908;DHT22;11620;50.050;8.690;2023-06-22T07:29:06;25.90;99.90
22908;DHT22;11620;50.050;8.690;2023-06-22T07:31:53;25.80;99.90
22908;DHT22;11620;50.050;8.690;2023-06-22T07:34:42;25.90;99.90
22908;DHT22;11620;50.050;8.690;2023-06-22T07:37:29;26.00;99.90
22908;DHT22;11620;50.050;8.690;2023-06-22T07:40:16;26.10;99.90
22908;DHT22;11620;50.050;8.690;2023-06-22T07:43:02;26.20;99.90
22908;DHT22;11620;50.050;8.690;2023-06-22T07:45:49;26.40;99.90
22908;DHT22;11620;50.050;8.690;2023-06-22T07:48:38;26.60;99.90
22908;DHT22;11620;50.050;8.690;2023-06-22T07:51:25;26.70;99.90
22908;DHT22;11620;50.050;8.690;2023-06-22T07:54:11;27.00;99.90
22908;DHT22;11620;50.050;8.690;2023-06-22T07:56:58;27.20;99.90
22908;DHT22;11620;50.050;8.690;2023-06-22T07:59:44;27.40;99.90
22908;DHT22;11620;50.050;8.690;2023-06-22T08:02:31;27.60;99.90
22908;DHT22;11620;50.050;8.690;2023-06-22T08:05:17;27.80;99.90
22908;DHT22;11620;50.050;8.690;2023-06-22T08:08:04;27.90;99.90
22908;DHT22;11620;50.050;8.690;2023-06-22T08:10:50;28.00;99.90
22908;DHT22;11620;50.050;8.690;2023-06-22T08:13:36;28.10;99.90
22908;DHT22;11620;50.050;8.690;2023-06-22T08:16:23;28.20;99.90
22908;DHT22;11620;50.050;8.690;2023-06-22T08:19:09;28.30;99.90
22908;DHT22;11620;50.050;8.690;2023-06-22T08:21:56;28.50;99.90
22908;DHT22;11620;50.050;8.690;2023-06-22T08:24:42;28.60;99.90
22908;DHT22;11620;50.050;8.690;2023-06-22T08:27:29;28.70;99.90
22908;DHT22;11620;50.050;8.690;2023-06-22T08:30:17;28.70;99.90
22908;DHT22;11620;50.050;8.690;2023-06-22T08:33:06;28.20;99.90
22908;DHT22;11620;50.050;8.690;2023-06-22T08:35:56;28.40;99.90
22908;DHT22;11620;50.050;8.690;2023-06-22T08:38:42;28.80;99.90
22908;DHT22;11620;50.050;8.690;2023-06-22T08:41:29;28.90;99.90
22908;DHT22;11620;50.050;8.690;2023-06-22T08:44:18;29.20;99.90
22908;DHT22;11620;50.050;8.690;2023-06-22T08:47:05;29.30;99.90
22908;DHT22;11620;50.050;8.690;2023-06-22T08:49:51;29.50;99.90
22908;DHT22;11620;50.050;8.690;2023-06-22T08:52:40;29.10;99.90
22908;DHT22;11620;50.050;8.690;2023-06-22T08:55:27;29.40;99.90
22908;DHT22;11620;50.050;8.690;2023-06-22T08:58:13;29.60;99.90
22908;DHT22;11620;50.050;8.690;2023-06-22T09:01:00;29.70;99.90
22908;DHT22;11620;50.050;8.690;2023-06-22T09:03:47;29.90;99.90
22908;DHT22;11620;50.050;8.690;2023-06-22T09:06:41;30.00;99.90
22908;DHT22;11620;50.050;8.690;2023-06-22T09:09:31;30.10;99.90
22908;DHT22;11620;50.050;8.690;2023-06-22T09:12:18;30.10;99.90
22908;DHT22;11620;50.050;8.690;2023-06-22T09:15:06;30.20;99.90
22908;DHT22;11620;50.050;8.690;2023-06-22T09:17:53;30.20;99.90
22908;DHT22;11620;50.050;8.690;2023-06-22T09:20:40;30.10;99.90
22908;DHT22;11620;50.050;8.690;2023-06-22T09:23:26;30.00;99.90
22908;DHT22;11620;50.050;8.690;2023-06-22T09:26:13;30.20;99.90
22908;DHT22;11620;50.050;8.690;2023-06-22T09:28:59;30.40;99.90
22908;DHT22;11620;50.050;8.690;2023-06-22T09:31:45;30.60;99.90
22908;DHT22;11620;50.050;8.690;2023-06-22T09:34:32;30.70;99.90
22908;DHT22;11620;50.050;8.690;2023-06-22T09:37:18;30.80;99.90
22908;DHT22;11620;50.050;8.690;2023-06-22T09:40:06;31.00;99.90
22908;DHT22;11620;50.050;8.690;2023-06-22T09:42:57;31.00;99.90
22908;DHT22;11620;50.050;8.690;2023-06-22T09:45:43;31.00;99.90
22908;DHT22;11620;50.050;8.690;2023-06-22T09:48:30;30.70;99.90
22908;DHT22;11620;50.050;8.690;2023-06-22T09:51:16;30.90;99.90
22908;DHT22;11620;50.050;8.690;2023-06-22T09:54:03;30.60;99.90
22908;DHT22;11620;50.050;8.690;2023-06-22T09:56:49;30.70;99.90
22908;DHT22;11620;50.050;8.690;2023-06-22T09:59:35;31.00;99.90
22908;DHT22;11620;50.050;8.690;2023-06-22T10:02:22;31.00;99.90
22908;DHT22;11620;50.050;8.690;2023-06-22T10:05:08;31.00;99.90
22908;DHT22;11620;50.050;8.690;2023-06-22T10:07:55;31.20;99.90
22908;DHT22;11620;50.050;8.690;2023-06-22T10:10:41;31.30;99.90
22908;DHT22;11620;50.050;8.690;2023-06-22T10:13:27;31.40;99.90
22908;DHT22;11620;50.050;8.690;2023-06-22T10:16:14;31.50;99.90
22908;DHT22;11620;50.050;8.690;2023-06-22T10:19:00;31.60;99.90
22908;DHT22;11620;50.050;8.690;2023-06-22T10:21:46;31.80;99.90
22908;DHT22;11620;50.050;8.690;2023-06-22T10:24:33;32.00;99.90
22908;DHT22;11620;50.050;8.690;2023-06-22T10:27:19;31.90;99.90
22908;DHT22;11620;50.050;8.690;2023-06-22T10:30:07;32.00;99.90
22908;DHT22;11620;50.050;8.690;2023-06-22T10:32:53;32.40;99.90
22908;DHT22;11620;50.050;8.690;2023-06-22T10:35:40;32.70;99.90
22908;DHT22;11620;50.050;8.690;2023-06-22T10:38:26;32.80;99.90
22908;DHT22;11620;50.050;8.690;2023-06-22T10:41:12;32.20;99.90
22908;DHT22;11620;50.050;8.690;2023-06-22T10:43:59;31.80;99.90
22908;DHT22;11620;50.050;8.690;2023-06-22T10:46:45;31.50;99.90
22908;DHT22;11620;50.050;8.690;2023-06-22T10:49:31;32.00;99.90
22908;DHT22;11620;50.050;8.690;2023-06-22T10:52:18;32.40;99.90
22908;DHT22;11620;50.050;8.690;2023-06-22T10:55:05;32.60;99.90
22908;DHT22;11620;50.050;8.690;2023-06-22T10:57:51;32.60;99.90
22908;DHT22;11620;50.050;8.690;2023-06-22T11:00:38;32.90;99.90
22908;DHT22;11620;50.050;8.690;2023-06-22T11:03:24;33.20;99.90
22908;DHT22;11620;50.050;8.690;2023-06-22T11:06:10;33.20;99.90
22908;DHT22;11620;50.050;8.690;2023-06-22T11:08:57;33.20;99.90
22908;DHT22;11620;50.050;8.690;2023-06-22T11:11:45;33.40;99.90
22908;DHT22;11620;50.050;8.690;2023-06-22T11:14:31;33.60;99.90
22908;DHT22;11620;50.050;8.690;2023-06-22T11:17:18;33.70;99.90
22908;DHT22;11620;50.050;8.690;2023-06-22T11:20:05;33.90;99.90
22908;DHT22;11620;50.050;8.690;2023-06-22T11:22:56;33.70;99.90
22908;DHT22;11620;50.050;8.690;2023-06-22T11:25:43;33.80;99.90
22908;DHT22;11620;50.050;8.690;2023-06-22T11:28:29;34.00;99.90
22908;DHT22;11620;50.050;8.690;2023-06-22T11:31:15;33.40;99.90
22908;DHT22;11620;50.050;8.690;2023-06-22T11:34:02;33.00;99.90
22908;DHT22;11620;50.050;8.690;2023-06-22T11:36:48;33.10;99.90
22908;DHT22;11620;50.050;8.690;2023-06-22T11:39:35;32.60;99.90
22908;DHT22;11620;50.050;8.690;2023-06-22T11:42:21;32.60;99.90
22908;DHT22;11620;50.050;8.690;2023-06-22T11:45:09;32.20;99.90
22908;DHT22;11620;50.050;8.690;2023-06-22T11:47:56;32.20;99.90
22908;DHT22;11620;50.050;8.690;2023-06-22T11:50:42;32.20;99.90
22908;DHT22;11620;50.050;8.690;2023-06-22T11:53:29;31.80;99.90
22908;DHT22;11620;50.050;8.690;2023-06-22T11:56:15;31.80;99.90
22908;DHT22;11620;50.050;8.690;2023-06-22T11:59:02;32.00;99.90
22908;DHT22;11620;50.050;8.690;2023-06-22T12:01:48;31.90;99.90
22908;DHT22;11620;50.050;8.690;2023-06-22T12:04:36;31.80;99.90
22908;DHT22;11620;50.050;8.690;2023-06-22T12:07:24;31.30;99.90
22908;DHT22;11620;50.050;8.690;2023-06-22T12:10:10;31.20;99.90
22908;DHT22;11620;50.050;8.690;2023-06-22T12:12:56;31.00;99.90
22908;DHT22;11620;50.050;8.690;2023-06-22T12:15:46;30.80;99.90
22908;DHT22;11620;50.050;8.690;2023-06-22T12:18:32;31.40;99.90
22908;DHT22;11620;50.050;8.690;2023-06-22T12:21:19;31.50;99.90
22908;DHT22;11620;50.050;8.690;2023-06-22T12:24:05;31.20;99.90
22908;DHT22;11620;50.050;8.690;2023-06-22T12:26:53;31.30;99.90
22908;DHT22;11620;50.050;8.690;2023-06-22T12:29:39;31.60;99.90
22908;DHT22;11620;50.050;8.690;2023-06-22T12:32:25;32.00;99.90
22908;DHT22;11620;50.050;8.690;2023-06-22T12:35:12;31.90;99.90
22908;DHT22;11620;50.050;8.690;2023-06-22T12:37:59;31.80;99.90
22908;DHT22;11620;50.050;8.690;2023-06-22T12:40:46;31.40;99.90
22908;DHT22;11620;50.050;8.690;2023-06-22T12:43:33;31.00;99.90
22908;DHT22;11620;50.050;8.690;2023-06-22T12:46:19;30.60;99.90
22908;DHT22;11620;50.050;8.690;2023-06-22T12:49:06;30.70;99.90
22908;DHT22;11620;50.050;8.690;2023-06-22T12:51:52;31.20;99.90
22908;DHT22;11620;50.050;8.690;2023-06-22T12:54:38;31.40;99.90
22908;DHT22;11620;50.050;8.690;2023-06-22T12:57:25;31.60;99.90
22908;DHT22;11620;50.050;8.690;2023-06-22T13:00:12;31.60;99.90
22908;DHT22;11620;50.050;8.690;2023-06-22T13:02:58;31.40;99.90
22908;DHT22;11620;50.050;8.690;2023-06-22T13:05:44;31.40;99.90
22908;DHT22;11620;50.050;8.690;2023-06-22T13:08:31;31.40;99.90
22908;DHT22;11620;50.050;8.690;2023-06-22T13:11:17;31.40;99.90
22908;DHT22;11620;50.050;8.690;2023-06-22T13:14:03;31.20;99.90
22908;DHT22;11620;50.050;8.690;2023-06-22T13:16:50;31.20;99.90
22908;DHT22;11620;50.050;8.690;2023-06-22T13:19:36;31.20;99.90
22908;DHT22;11620;50.050;8.690;2023-06-22T13:22:26;31.00;99.90
22908;DHT22;11620;50.050;8.690;2023-06-22T13:25:15;30.90;99.90
22908;DHT22;11620;50.050;8.690;2023-06-22T13:28:05;31.10;99.90
22908;DHT22;11620;50.050;8.690;2023-06-22T13:30:51;31.30;99.90
22908;DHT22;11620;50.050;8.690;2023-06-22T13:33:38;31.30;99.90
22908;DHT22;11620;50.050;8.690;2023-06-22T13:36:24;31.20;99.90
22908;DHT22;11620;50.050;8.690;2023-06-22T13:39:12;31.20;99.90
22908;DHT22;11620;50.050;8.690;2023-06-22T13:41:58;31.30;99.90
22908;DHT22;11620;50.050;8.690;2023-06-22T13:44:45;31.20;99.90
22908;DHT22;11620;50.050;8.690;2023-06-22T13:47:31;31.50;99.90
22908;DHT22;11620;50.050;8.690;2023-06-22T13:50:18;31.60;99.90
22908;DHT22;11620;50.050;8.690;2023-06-22T13:53:04;31.80;99.90
22908;DHT22;11620;50.050;8.690;2023-06-22T13:55:50;31.90;99.90
22908;DHT22;11620;50.050;8.690;2023-06-22T13:58:37;31.90;99.90
22908;DHT22;11620;50.050;8.690;2023-06-22T14:01:23;31.90;99.90
22908;DHT22;11620;50.050;8.690;2023-06-22T14:04:10;31.90;99.90
22908;DHT22;11620;50.050;8.690;2023-06-22T14:06:56;31.90;99.90
22908;DHT22;11620;50.050;8.690;2023-06-22T14:09:43;31.80;99.90
22908;DHT22;11620;50.050;8.690;2023-06-22T14:12:29;31.80;99.90
22908;DHT22;11620;50.050;8.690;2023-06-22T14:15:16;31.80;99.90
22908;DHT22;11620;50.050;8.690;2023-06-22T14:18:02;31.90;99.90
22908;DHT22;11620;50.050;8.690;2023-06-22T14:20:49;32.10;99.90
22908;DHT22;11620;50.050;8.690;2023-06-22T14:23:35;32.20;99.90
22908;DHT22;11620;50.050;8.690;2023-06-22T14:26:23;32.20;99.90
22908;DHT22;11620;50.050;8.690;2023-06-22T14:29:09;32.00;99.90
22908;DHT22;11620;50.050;8.690;2023-06-22T14:31:56;32.00;99.90
22908;DHT22;11620;50.050;8.690;2023-06-22T14:34:42;31.60;99.90
22908;DHT22;11620;50.050;8.690;2023-06-22T14:37:29;31.60;99.90
22908;DHT22;11620;50.050;8.690;2023-06-22T14:40:15;31.40;99.90
22908;DHT22;11620;50.050;8.690;2023-06-22T14:43:02;31.20;99.90
22908;DHT22;11620;50.050;8.690;2023-06-22T14:45:48;31.10;99.90
22908;DHT22;11620;50.050;8.690;2023-06-22T14:48:34;31.00;99.90
22908;DHT22;11620;50.050;8.690;2023-06-22T14:51:21;30.60;99.90
22908;DHT22;11620;50.050;8.690;2023-06-22T14:54:07;30.50;99.90
22908;DHT22;11620;50.050;8.690;2023-06-22T14:56:54;30.60;99.90
22908;DHT22;11620;50.050;8.690;2023-06-22T14:59:40;30.80;99.90
22908;DHT22;11620;50.050;8.690;2023-06-22T15:02:26;30.70;99.90
22908;DHT22;11620;50.050;8.690;2023-06-22T15:05:13;30.80;99.90
22908;DHT22;11620;50.050;8.690;2023-06-22T15:07:59;31.00;99.90
22908;DHT22;11620;50.050;8.690;2023-06-22T15:10:45;30.90;99.90
22908;DHT22;11620;50.050;8.690;2023-06-22T15:13:32;30.50;99.90
22908;DHT22;11620;50.050;8.690;2023-06-22T15:16:20;30.60;99.90
22908;DHT22;11620;50.050;8.690;2023-06-22T15:19:06;30.50;99.90
22908;DHT22;11620;50.050;8.690;2023-06-22T15:21:52;30.20;99.90
22908;DHT22;11620;50.050;8.690;2023-06-22T15:24:39;30.20;99.90
22908;DHT22;11620;50.050;8.690;2023-06-22T15:27:25;30.30;99.90
22908;DHT22;11620;50.050;8.690;2023-06-22T15:30:11;30.10;99.90
22908;DHT22;11620;50.050;8.690;2023-06-22T15:32:58;30.20;99.90
22908;DHT22;11620;50.050;8.690;2023-06-22T15:35:44;30.20;99.90
22908;DHT22;11620;50.050;8.690;2023-06-22T15:38:31;30.30;99.90
22908;DHT22;11620;50.050;8.690;2023-06-22T15:41:17;30.20;99.90
22908;DHT22;11620;50.050;8.690;2023-06-22T15:44:04;30.20;99.90
22908;DHT22;11620;50.050;8.690;2023-06-22T15:46:50;30.10;99.90
22908;DHT22;11620;50.050;8.690;2023-06-22T15:49:37;29.90;99.90
22908;DHT22;11620;50.050;8.690;2023-06-22T15:52:23;30.00;99.90
22908;DHT22;11620;50.050;8.690;2023-06-22T15:55:10;29.70;99.90
22908;DHT22;11620;50.050;8.690;2023-06-22T15:57:56;29.70;99.90
22908;DHT22;11620;50.050;8.690;2023-06-22T16:00:42;29.60;99.90
22908;DHT22;11620;50.050;8.690;2023-06-22T16:03:29;29.70;99.90
22908;DHT22;11620;50.050;8.690;2023-06-22T16:06:15;29.80;99.90
22908;DHT22;11620;50.050;8.690;2023-06-22T16:09:02;29.50;99.90
22908;DHT22;11620;50.050;8.690;2023-06-22T16:11:49;29.20;99.90
22908;DHT22;11620;50.050;8.690;2023-06-22T16:14:35;29.40;99.90
22908;DHT22;11620;50.050;8.690;2023-06-22T16:17:23;29.30;99.90
22908;DHT22;11620;50.050;8.690;2023-06-22T16:20:12;29.10;99.90
22908;DHT22;11620;50.050;8.690;2023-06-22T16:23:02;29.20;99.90
22908;DHT22;11620;50.050;8.690;2023-06-22T16:25:49;29.10;99.90
22908;DHT22;11620;50.050;8.690;2023-06-22T16:28:35;28.60;99.90
22908;DHT22;11620;50.050;8.690;2023-06-22T16:31:21;28.10;99.90
22908;DHT22;11620;50.050;8.690;2023-06-22T16:34:08;27.40;99.90
22908;DHT22;11620;50.050;8.690;2023-06-22T16:36:54;27.10;99.90
22908;DHT22;11620;50.050;8.690;2023-06-22T16:39:40;26.80;99.90
22908;DHT22;11620;50.050;8.690;2023-06-22T16:42:26;26.70;99.90
22908;DHT22;11620;50.050;8.690;2023-06-22T16:45:14;26.50;99.90
22908;DHT22;11620;50.050;8.690;2023-06-22T16:48:01;26.60;99.90
22908;DHT22;11620;50.050;8.690;2023-06-22T16:50:47;26.00;99.90
22908;DHT22;11620;50.050;8.690;2023-06-22T16:53:34;26.10;99.90
22908;DHT22;11620;50.050;8.690;2023-06-22T16:56:26;26.20;99.90
22908;DHT22;11620;50.050;8.690;2023-06-22T16:59:13;25.90;99.90
22908;DHT22;11620;50.050;8.690;2023-06-22T17:02:00;25.90;99.90
22908;DHT22;11620;50.050;8.690;2023-06-22T17:04:47;25.90;99.90
22908;DHT22;11620;50.050;8.690;2023-06-22T17:07:36;26.00;99.90
22908;DHT22;11620;50.050;8.690;2023-06-22T17:10:23;25.90;99.90
22908;DHT22;11620;50.050;8.690;2023-06-22T17:13:10;26.00;99.90
22908;DHT22;11620;50.050;8.690;2023-06-22T17:15:59;25.90;99.90
22908;DHT22;11620;50.050;8.690;2023-06-22T17:18:47;25.80;99.90
22908;DHT22;11620;50.050;8.690;2023-06-22T17:21:34;25.50;99.90
22908;DHT22;11620;50.050;8.690;2023-06-22T17:24:23;25.30;99.90
22908;DHT22;11620;50.050;8.690;2023-06-22T17:27:10;25.40;99.90
22908;DHT22;11620;50.050;8.690;2023-06-22T17:30:07;25.50;99.90
22908;DHT22;11620;50.050;8.690;2023-06-22T17:32:54;25.50;99.90
22908;DHT22;11620;50.050;8.690;2023-06-22T17:35:48;25.50;99.90